Time;durP1;ratioP1;P1;durP2;ratioP2;P2;SDS_P1;SDS_P2;PMS_P1;PMS_P2;Temp;Humidity;BMP_temperature;BMP_pressure;BME280_temperature;BME280_humidity;BME280_pressure;Samples;Min_cycle;Max_cycle;Signal;HPM_P1;HPM_P2
2021/06/24 00:01:18;;;;;;;;;;;;;;;;;;5116160;27;19963;-68
2021/06/24 00:03:44;;;;;;;;;;;;;;;;;;5122720;27;19966;-68
2021/06/24 00:06:10;;;;;;;;;;;;;;;;;;5111147;27;20279;-68
2021/06/24 00:08:35;;;;;;;;;;;;;;;;;;5113172;27;19912;-66
2021/06/24 00:11:01;;;;;;;;;;;;;;;;;;5107515;27;19916;-68
2021/06/24 00:13:27;;;;;;;;;;;;;;;;;;5110366;27;19919;-68
2021/06/24 00:15:53;;;;;;;;;;;;;;;;;;5113472;28;20282;-69
2021/06/24 00:18:19;;;;;;;;;;;;;;;;;;5112225;28;20420;-68
2021/06/24 00:20:45;;;;;;;;;;;;;;;;;;5110239;27;19927;-69
2021/06/24 00:23:11;;;;;;;;;;;;;;;;;;5114376;28;20282;-69
2021/06/24 00:25:37;;;;;;;;;;;;;;;;;;5113640;28;19935;-68
2021/06/24 00:28:03;;;;;;;;;;;;;;;;;;5094939;28;20277;-69
2021/06/24 00:30:29;;;;;;;;;;;;;;;;;;5109311;28;19918;-68
2021/06/24 00:32:54;;;;;;;;;;;;;;;;;;5125068;28;19961;-69
2021/06/24 00:35:20;;;;;;;;;;;;;;;;;;5116289;28;20431;-69
2021/06/24 00:37:47;;;;;;;;;;;;;;;;;;5112969;28;19923;-68
2021/06/24 00:40:13;;;;;;;;;;;;;;;;;;5113162;28;20371;-69
2021/06/24 00:42:39;;;;;;;;;;;;;;;;;;5103250;28;19951;-69
2021/06/24 00:45:04;;;;;;;;;;;;;;;;;;5109392;28;19919;-69
2021/06/24 00:47:30;;;;;;;;;;;;;;;;;;5114467;28;19943;-69
2021/06/24 00:49:56;;;;;;;;;;;;;;;;;;5114147;28;19911;-69
2021/06/24 00:52:22;;;;;;;;;;;;;;;;;;5111515;28;19919;-69
2021/06/24 00:54:48;;;;;;;;;;;;;;;;;;5112516;28;20027;-69
2021/06/24 00:57:14;;;;;;;;;;;;;;;;;;5110855;28;19920;-68
2021/06/24 00:59:40;;;;;;;;;;;;;;;;;;5113171;28;19907;-68
2021/06/24 01:02:06;;;;;;;;;;;;;;;;;;5124209;28;19907;-68
2021/06/24 01:04:32;;;;;;;;;;;;;;;;;;5115387;28;19951;-68
2021/06/24 01:06:57;;;;;;;;;;;;;;;;;;5112841;28;19912;-69
2021/06/24 01:09:23;;;;;;;;;;;;;;;;;;5111921;28;19926;-68
2021/06/24 01:11:49;;;;;;;;;;;;;;;;;;5100182;28;20002;-69
2021/06/24 01:14:15;;;;;;;;;;;;;;;;;;5115469;28;19912;-68
2021/06/24 01:16:41;;;;;;;;;;;;;;;;;;5114158;28;19919;-68
2021/06/24 01:19:07;;;;;;;;;;;;;;;;;;5112120;28;19912;-69
2021/06/24 01:21:33;;;;;;;;;;;;;;;;;;5113862;27;19919;-69
2021/06/24 01:23:59;;;;;;;;;;;;;;;;;;5112301;27;19911;-68
2021/06/24 01:26:25;;;;;;;;;;;;;;;;;;5119756;27;19908;-69
2021/06/24 01:28:51;;;;;;;;;;;;;;;;;;5116890;27;19912;-60
2021/06/24 01:31:16;;;;;;;;;;;;;;;;;;5118732;27;19912;-60
2021/06/24 01:33:42;;;;;;;;;;;;;;;;;;5125629;27;19922;-60
2021/06/24 01:36:08;;;;;;;;;;;;;;;;;;5113460;28;19924;-59
2021/06/24 01:38:34;;;;;;;;;;;;;;;;;;5117088;27;19914;-59
2021/06/24 01:41:00;;;;;;;;;;;;;;;;;;5110519;27;19922;-59
2021/06/24 01:43:26;;;;;;;;;;;;;;;;;;5113943;27;20003;-60
2021/06/24 01:45:52;;;;;;;;;;;;;;;;;;5116126;27;20385;-60
2021/06/24 01:48:18;;;;;;;;;;;;;;;;;;5114102;27;19911;-59
2021/06/24 01:50:44;;;;;;;;;;;;;;;;;;5113198;27;19909;-59
2021/06/24 01:53:10;;;;;;;;;;;;;;;;;;5117793;27;20263;-59
2021/06/24 01:55:36;;;;;;;;;;;;;;;;;;5117103;27;19976;-59
2021/06/24 01:58:02;;;;;;;;;;;;;;;;;;5115240;27;19915;-60
2021/06/24 02:00:28;;;;;;;;;;;;;;;;;;5111961;27;20289;-60
2021/06/24 02:02:54;;;;;;;;;;;;;;;;;;5110347;28;19992;-60
2021/06/24 02:05:19;;;;;;;;;;;;;;;;;;5119039;27;20379;-60
2021/06/24 02:07:45;;;;;;;;;;;;;;;;;;5115765;27;19922;-60
2021/06/24 02:10:11;;;;;;;;;;;;;;;;;;5115350;27;19963;-60
2021/06/24 02:12:37;;;;;;;;;;;;;;;;;;5087778;27;19911;-59
2021/06/24 02:15:03;;;;;;;;;;;;;;;;;;5111883;27;20368;-60
2021/06/24 02:17:29;;;;;;;;;;;;;;;;;;5117594;27;19908;-60
2021/06/24 02:19:55;;;;;;;;;;;;;;;;;;5115343;27;20159;-59
2021/06/24 02:22:21;;;;;;;;;;;;;;;;;;5115172;27;19915;-59
2021/06/24 02:24:46;;;;;;;;;;;;;;;;;;5115204;27;19918;-59
2021/06/24 02:27:12;;;;;;;;;;;;;;;;;;5112793;27;19954;-60
2021/06/24 02:29:38;;;;;;;;;;;;;;;;;;5115540;27;19908;-60
2021/06/24 02:32:04;;;;;;;;;;;;;;;;;;5125285;27;19918;-60
2021/06/24 02:34:30;;;;;;;;;;;;;;;;;;5117730;27;20325;-60
2021/06/24 02:36:57;;;;;;;;;;;;;;;;;;5114842;27;19920;-60
2021/06/24 02:39:22;;;;;;;;;;;;;;;;;;5114286;27;19911;-60
2021/06/24 02:41:48;;;;;;;;;;;;;;;;;;5102159;27;19920;-59
2021/06/24 02:44:14;;;;;;;;;;;;;;;;;;5117697;27;20302;-60
2021/06/24 02:46:41;;;;;;;;;;;;;;;;;;5115239;27;19912;-60
2021/06/24 02:49:06;;;;;;;;;;;;;;;;;;5096460;28;19908;-60
2021/06/24 02:51:32;;;;;;;;;;;;;;;;;;5112508;27;20287;-60
2021/06/24 02:53:58;;;;;;;;;;;;;;;;;;5110217;28;19911;-59
2021/06/24 02:56:24;;;;;;;;;;;;;;;;;;5117728;27;19920;-60
2021/06/24 02:58:50;;;;;;;;;;;;;;;;;;5114232;27;19990;-61
2021/06/24 03:01:16;;;;;;;;;;;;;;;;;;5097840;27;20427;-61
2021/06/24 03:03:42;;;;;;;;;;;;;;;;;;5123874;27;20370;-59
2021/06/24 03:06:08;;;;;;;;;;;;;;;;;;5111609;27;19935;-59
2021/06/24 03:08:34;;;;;;;;;;;;;;;;;;5115719;27;20282;-59
2021/06/24 03:10:59;;;;;;;;;;;;;;;;;;5108626;27;19921;-59
2021/06/24 03:13:25;;;;;;;;;;;;;;;;;;5110785;27;20014;-61
2021/06/24 03:15:51;;;;;;;;;;;;;;;;;;5114157;27;20447;-59
2021/06/24 03:18:17;;;;;;;;;;;;;;;;;;5112520;27;19919;-59
2021/06/24 03:20:43;;;;;;;;;;;;;;;;;;5111319;27;20376;-61
2021/06/24 03:23:09;;;;;;;;;;;;;;;;;;5115796;27;19907;-61
2021/06/24 03:25:35;;;;;;;;;;;;;;;;;;5114482;27;19919;-59
2021/06/24 03:28:01;;;;;;;;;;;;;;;;;;5114292;27;19912;-61
2021/06/24 03:30:27;;;;;;;;;;;;;;;;;;5110199;27;19918;-60
2021/06/24 03:32:52;;;;;;;;;;;;;;;;;;5126088;27;19932;-60
2021/06/24 03:35:18;;;;;;;;;;;;;;;;;;5116882;27;19973;-60
2021/06/24 03:37:44;;;;;;;;;;;;;;;;;;5113650;27;20362;-60
2021/06/24 03:40:15;;;;;;;;;;;;;;;;;;5114260;27;19939;-60
2021/06/24 03:42:40;;;;;;;;;;;;;;;;;;5103281;27;19911;-64
2021/06/24 03:45:06;;;;;;;;;;;;;;;;;;5113405;27;19919;-64
2021/06/24 03:47:32;;;;;;;;;;;;;;;;;;5114251;27;19927;-64
2021/06/24 03:49:58;;;;;;;;;;;;;;;;;;5116281;27;20275;-65
2021/06/24 03:52:24;;;;;;;;;;;;;;;;;;5111890;27;19912;-62
2021/06/24 03:54:50;;;;;;;;;;;;;;;;;;5121538;27;20359;-62
2021/06/24 03:57:16;;;;;;;;;;;;;;;;;;5122426;27;19919;-62
2021/06/24 03:59:42;;;;;;;;;;;;;;;;;;5119562;27;20371;-62
2021/06/24 04:02:07;;;;;;;;;;;;;;;;;;5122664;27;19925;-62
2021/06/24 04:04:33;;;;;;;;;;;;;;;;;;5121687;27;19951;-62
2021/06/24 04:06:59;;;;;;;;;;;;;;;;;;5122037;27;19964;-62
2021/06/24 04:09:25;;;;;;;;;;;;;;;;;;5121095;27;19931;-62
2021/06/24 04:11:51;;;;;;;;;;;;;;;;;;5107215;27;20439;-62
2021/06/24 04:14:17;;;;;;;;;;;;;;;;;;5116306;27;19918;-65
2021/06/24 04:16:43;;;;;;;;;;;;;;;;;;5112362;28;20294;-62
2021/06/24 04:19:10;;;;;;;;;;;;;;;;;;5113746;28;19915;-62
2021/06/24 04:21:36;;;;;;;;;;;;;;;;;;5111862;27;20323;-62
2021/06/24 04:24:02;;;;;;;;;;;;;;;;;;5109386;28;19916;-63
2021/06/24 04:26:28;;;;;;;;;;;;;;;;;;5115014;28;20400;-62
2021/06/24 04:28:54;;;;;;;;;;;;;;;;;;5113664;28;19999;-62
2021/06/24 04:31:20;;;;;;;;;;;;;;;;;;5116074;28;19911;-62
2021/06/24 04:33:46;;;;;;;;;;;;;;;;;;5122467;28;19922;-62
2021/06/24 04:36:12;;;;;;;;;;;;;;;;;;5110708;28;20362;-62
2021/06/24 04:38:38;;;;;;;;;;;;;;;;;;5112849;28;19912;-62
2021/06/24 04:41:03;;;;;;;;;;;;;;;;;;5107007;28;19939;-62
2021/06/24 04:43:29;;;;;;;;;;;;;;;;;;5110718;28;19923;-62
2021/06/24 04:45:55;;;;;;;;;;;;;;;;;;5113078;28;20566;-62
2021/06/24 04:48:21;;;;;;;;;;;;;;;;;;5111961;28;19908;-63
2021/06/24 04:50:47;;;;;;;;;;;;;;;;;;5108993;28;20462;-62
2021/06/24 04:53:13;;;;;;;;;;;;;;;;;;5115030;28;20371;-63
2021/06/24 04:55:39;;;;;;;;;;;;;;;;;;5117530;27;19920;-62
2021/06/24 04:58:05;;;;;;;;;;;;;;;;;;5123157;27;19963;-62
2021/06/24 05:00:31;;;;;;;;;;;;;;;;;;5122868;27;19911;-62
2021/06/24 05:02:56;;;;;;;;;;;;;;;;;;5125912;27;19912;-62
2021/06/24 05:05:22;;;;;;;;;;;;;;;;;;5127743;27;20351;-63
2021/06/24 05:07:49;;;;;;;;;;;;;;;;;;5124857;27;19912;-62
2021/06/24 05:10:15;;;;;;;;;;;;;;;;;;5115909;27;20018;-62
2021/06/24 05:12:40;;;;;;;;;;;;;;;;;;5107261;27;19998;-62
2021/06/24 05:15:06;;;;;;;;;;;;;;;;;;5113361;27;19915;-62
2021/06/24 05:17:32;;;;;;;;;;;;;;;;;;5117724;27;19915;-62
2021/06/24 05:19:58;;;;;;;;;;;;;;;;;;5118270;27;19914;-62
2021/06/24 05:22:24;;;;;;;;;;;;;;;;;;5115238;27;19919;-62
2021/06/24 05:24:50;;;;;;;;;;;;;;;;;;5121234;27;20071;-64
2021/06/24 05:27:16;;;;;;;;;;;;;;;;;;5127772;27;19976;-64
2021/06/24 05:29:42;;;;;;;;;;;;;;;;;;5115279;27;20286;-64
2021/06/24 05:32:08;;;;;;;;;;;;;;;;;;5127209;27;19915;-63
2021/06/24 05:34:34;;;;;;;;;;;;;;;;;;5118125;27;20102;-63
2021/06/24 05:37:03;;;;;;;;;;;;;;;;;;5116416;27;20272;-63
2021/06/24 05:39:29;;;;;;;;;;;;;;;;;;5115704;27;20049;-63
2021/06/24 05:41:57;;;;;;;;;;;;;;;;;;5111067;28;19999;-63
2021/06/24 05:44:23;;;;;;;;;;;;;;;;;;5123742;27;19919;-64
2021/06/24 05:46:49;;;;;;;;;;;;;;;;;;5122732;27;19918;-64
2021/06/24 05:49:15;;;;;;;;;;;;;;;;;;5122224;27;19912;-63
2021/06/24 05:51:41;;;;;;;;;;;;;;;;;;5122597;27;19919;-64
2021/06/24 05:54:06;;;;;;;;;;;;;;;;;;5122531;27;19915;-63
2021/06/24 05:56:32;;;;;;;;;;;;;;;;;;5123138;27;19922;-63
2021/06/24 05:58:58;;;;;;;;;;;;;;;;;;5122643;27;20405;-63
2021/06/24 06:01:24;;;;;;;;;;;;;;;;;;5119932;27;19965;-63
2021/06/24 06:03:50;;;;;;;;;;;;;;;;;;5124180;27;19999;-63
2021/06/24 06:06:16;;;;;;;;;;;;;;;;;;5113067;27;20012;-66
2021/06/24 06:08:42;;;;;;;;;;;;;;;;;;5113515;27;19998;-63
2021/06/24 06:11:08;;;;;;;;;;;;;;;;;;5116015;27;19966;-65
2021/06/24 06:13:34;;;;;;;;;;;;;;;;;;5121264;27;19946;-63
2021/06/24 06:16:00;;;;;;;;;;;;;;;;;;5122953;27;20390;-63
2021/06/24 06:18:26;;;;;;;;;;;;;;;;;;5110997;27;19927;-63
2021/06/24 06:20:52;;;;;;;;;;;;;;;;;;5108485;27;19912;-63
2021/06/24 06:23:17;;;;;;;;;;;;;;;;;;5113844;27;20359;-64
2021/06/24 06:25:44;;;;;;;;;;;;;;;;;;5114593;27;19965;-64
2021/06/24 06:28:10;;;;;;;;;;;;;;;;;;5109450;27;19919;-64
2021/06/24 06:30:36;;;;;;;;;;;;;;;;;;5108202;27;19916;-63
2021/06/24 06:33:02;;;;;;;;;;;;;;;;;;5111782;27;19922;-63
2021/06/24 06:35:28;;;;;;;;;;;;;;;;;;5129447;27;20341;-63
2021/06/24 06:37:54;;;;;;;;;;;;;;;;;;5113756;27;19969;-63
2021/06/24 06:40:20;;;;;;;;;;;;;;;;;;5113109;27;20389;-63
2021/06/24 06:42:47;;;;;;;;;;;;;;;;;;5103602;27;19916;-58
2021/06/24 06:45:13;;;;;;;;;;;;;;;;;;5106873;27;20240;-59
2021/06/24 06:47:39;;;;;;;;;;;;;;;;;;5108612;27;19907;-59
2021/06/24 06:50:05;;;;;;;;;;;;;;;;;;5115812;27;19918;-59
2021/06/24 06:52:31;;;;;;;;;;;;;;;;;;5111360;27;19957;-59
2021/06/24 06:54:57;;;;;;;;;;;;;;;;;;5113632;27;19911;-59
2021/06/24 06:57:22;;;;;;;;;;;;;;;;;;5112111;27;19915;-59
2021/06/24 06:59:48;;;;;;;;;;;;;;;;;;5110758;27;20282;-59
2021/06/24 07:02:14;;;;;;;;;;;;;;;;;;5122436;27;19923;-59
2021/06/24 07:04:40;;;;;;;;;;;;;;;;;;5113612;27;20359;-59
2021/06/24 07:07:06;;;;;;;;;;;;;;;;;;5113303;27;20315;-59
2021/06/24 07:09:32;;;;;;;;;;;;;;;;;;5112824;27;20006;-58
2021/06/24 07:11:58;;;;;;;;;;;;;;;;;;5098942;28;19922;-58
2021/06/24 07:14:24;;;;;;;;;;;;;;;;;;5128222;27;19915;-58
2021/06/24 07:16:50;;;;;;;;;;;;;;;;;;5113207;27;20034;-58
2021/06/24 07:19:16;;;;;;;;;;;;;;;;;;5112893;27;20434;-58
2021/06/24 07:21:42;;;;;;;;;;;;;;;;;;5107185;27;19960;-57
2021/06/24 07:24:08;;;;;;;;;;;;;;;;;;5109918;27;19916;-57
2021/06/24 07:26:34;;;;;;;;;;;;;;;;;;5113164;27;20634;-57
2021/06/24 07:29:00;;;;;;;;;;;;;;;;;;5113712;27;19922;-59
2021/06/24 07:31:25;;;;;;;;;;;;;;;;;;5117233;27;20290;-58
2021/06/24 07:33:51;;;;;;;;;;;;;;;;;;5116121;27;19916;-56
2021/06/24 07:36:17;;;;;;;;;;;;;;;;;;5110810;27;19923;-58
2021/06/24 07:38:43;;;;;;;;;;;;;;;;;;5108620;27;19916;-58
2021/06/24 07:41:09;;;;;;;;;;;;;;;;;;5104797;27;19935;-58
2021/06/24 07:43:35;;;;;;;;;;;;;;;;;;5113528;27;20032;-56
2021/06/24 07:46:01;;;;;;;;;;;;;;;;;;5117798;27;19919;-57
2021/06/24 07:48:27;;;;;;;;;;;;;;;;;;5110374;27;20345;-58
2021/06/24 07:50:53;;;;;;;;;;;;;;;;;;5093947;28;20435;-58
2021/06/24 07:53:19;;;;;;;;;;;;;;;;;;5112250;27;20407;-58
2021/06/24 07:55:45;;;;;;;;;;;;;;;;;;5111521;27;19967;-58
2021/06/24 07:58:11;;;;;;;;;;;;;;;;;;5112386;27;20348;-59
2021/06/24 08:00:37;;;;;;;;;;;;;;;;;;5108980;27;19991;-58
2021/06/24 08:03:03;;;;;;;;;;;;;;;;;;5107606;27;20436;-55
2021/06/24 08:05:29;;;;;;;;;;;;;;;;;;5114213;27;19908;-58
2021/06/24 08:07:55;;;;;;;;;;;;;;;;;;5112655;27;20800;-58
2021/06/24 08:10:21;;;;;;;;;;;;;;;;;;5110738;27;19924;-67
2021/06/24 08:12:46;;;;;;;;;;;;;;;;;;5102454;27;20317;-66
2021/06/24 08:15:12;;;;;;;;;;;;;;;;;;5111704;27;19912;-64
2021/06/24 08:17:38;;;;;;;;;;;;;;;;;;5112136;28;19912;-63
2021/06/24 08:20:04;;;;;;;;;;;;;;;;;;5113442;28;19950;-63
2021/06/24 08:22:31;;;;;;;;;;;;;;;;;;5110125;27;20006;-64
2021/06/24 08:24:57;;;;;;;;;;;;;;;;;;5109846;28;19916;-64
2021/06/24 08:27:22;;;;;;;;;;;;;;;;;;5101215;28;19919;-64
2021/06/24 08:29:48;;;;;;;;;;;;;;;;;;5108967;28;19958;-64
2021/06/24 08:32:14;;;;;;;;;;;;;;;;;;5121817;28;19916;-64
2021/06/24 08:34:40;;;;;;;;;;;;;;;;;;5111835;28;19923;-65
2021/06/24 08:37:06;;;;;;;;;;;;;;;;;;5105074;28;19919;-64
2021/06/24 08:39:32;;;;;;;;;;;;;;;;;;5108525;28;20394;-64
2021/06/24 08:41:58;;;;;;;;;;;;;;;;;;5098079;28;20282;-64
2021/06/24 08:44:24;;;;;;;;;;;;;;;;;;5108972;28;19914;-64
2021/06/24 08:46:53;;;;;;;;;;;;;;;;;;5111418;28;19912;-63
2021/06/24 08:49:19;;;;;;;;;;;;;;;;;;5082004;28;19916;-64
2021/06/24 08:51:45;;;;;;;;;;;;;;;;;;5111182;28;19934;-63
2021/06/24 08:54:11;;;;;;;;;;;;;;;;;;5108994;28;19959;-63
2021/06/24 08:56:37;;;;;;;;;;;;;;;;;;5111740;28;20290;-63
2021/06/24 08:59:04;;;;;;;;;;;;;;;;;;5112209;28;19911;-63
2021/06/24 09:01:30;;;;;;;;;;;;;;;;;;5105028;28;19915;-62
2021/06/24 09:03:55;;;;;;;;;;;;;;;;;;5114530;28;19916;-60
2021/06/24 09:06:21;;;;;;;;;;;;;;;;;;5110445;28;19911;-60
2021/06/24 09:08:53;;;;;;;;;;;;;;;;;;5108945;28;20322;-61
2021/06/24 09:11:19;;;;;;;;;;;;;;;;;;5104014;28;20057;-61
2021/06/24 09:13:45;;;;;;;;;;;;;;;;;;5107915;28;20433;-61
2021/06/24 09:16:11;;;;;;;;;;;;;;;;;;5117832;28;20282;-61
2021/06/24 09:18:37;;;;;;;;;;;;;;;;;;5110962;28;20418;-61
2021/06/24 09:21:03;;;;;;;;;;;;;;;;;;5106657;28;20415;-61
2021/06/24 09:23:29;;;;;;;;;;;;;;;;;;5102039;28;19912;-61
2021/06/24 09:25:55;;;;;;;;;;;;;;;;;;5092384;28;19916;-62
2021/06/24 09:28:21;;;;;;;;;;;;;;;;;;5106925;28;19912;-62
2021/06/24 09:30:47;;;;;;;;;;;;;;;;;;5110360;28;19923;-66
2021/06/24 09:33:12;;;;;;;;;;;;;;;;;;5106220;28;19919;-66
2021/06/24 09:35:38;;;;;;;;;;;;;;;;;;5111157;28;20405;-66
2021/06/24 09:38:05;;;;;;;;;;;;;;;;;;5112012;28;20205;-65
2021/06/24 09:40:31;;;;;;;;;;;;;;;;;;5109281;28;19912;-66
2021/06/24 09:42:56;;;;;;;;;;;;;;;;;;5100449;27;19918;-66
2021/06/24 09:45:22;;;;;;;;;;;;;;;;;;5121775;27;20533;-64
2021/06/24 09:47:48;;;;;;;;;;;;;;;;;;5111637;28;19958;-64
2021/06/24 09:50:14;;;;;;;;;;;;;;;;;;5116036;27;19919;-63
2021/06/24 09:52:40;;;;;;;;;;;;;;;;;;5113511;27;19912;-64
2021/06/24 09:55:06;;;;;;;;;;;;;;;;;;5115051;27;19923;-64
2021/06/24 09:57:32;;;;;;;;;;;;;;;;;;5103019;27;19922;-63
2021/06/24 09:59:58;;;;;;;;;;;;;;;;;;5109776;28;19959;-63
2021/06/24 10:02:23;;;;;;;;;;;;;;;;;;5126172;27;20275;-63
2021/06/24 10:04:49;;;;;;;;;;;;;;;;;;5115173;27;19962;-63
2021/06/24 10:07:15;;;;;;;;;;;;;;;;;;5115800;27;19915;-63
2021/06/24 10:09:41;;;;;;;;;;;;;;;;;;5115412;27;19964;-63
2021/06/24 10:12:07;;;;;;;;;;;;;;;;;;5101571;28;20003;-63
2021/06/24 10:14:33;;;;;;;;;;;;;;;;;;5130256;27;19908;-63
2021/06/24 10:16:59;;;;;;;;;;;;;;;;;;5117938;27;19921;-63
2021/06/24 10:19:25;;;;;;;;;;;;;;;;;;5115207;27;19919;-63
2021/06/24 10:21:51;;;;;;;;;;;;;;;;;;5114207;27;19912;-63
2021/06/24 10:24:17;;;;;;;;;;;;;;;;;;5113220;27;19913;-64
2021/06/24 10:26:43;;;;;;;;;;;;;;;;;;5113980;27;19908;-64
2021/06/24 10:29:09;;;;;;;;;;;;;;;;;;5116780;27;20303;-64
2021/06/24 10:31:35;;;;;;;;;;;;;;;;;;5120491;27;19958;-63
2021/06/24 10:34:03;;;;;;;;;;;;;;;;;;5117336;27;19957;-63
2021/06/24 10:36:29;;;;;;;;;;;;;;;;;;5114503;27;19920;-64
2021/06/24 10:38:57;;;;;;;;;;;;;;;;;;5094646;28;19915;-64
2021/06/24 10:41:23;;;;;;;;;;;;;;;;;;5104052;27;19908;-64
2021/06/24 10:43:49;;;;;;;;;;;;;;;;;;5121780;27;19999;-63
2021/06/24 10:46:15;;;;;;;;;;;;;;;;;;5118464;27;19988;-63
2021/06/24 10:48:41;;;;;;;;;;;;;;;;;;5113232;27;19911;-64
2021/06/24 10:51:07;;;;;;;;;;;;;;;;;;5109299;27;19951;-64
2021/06/24 10:53:32;;;;;;;;;;;;;;;;;;5113941;27;20290;-64
2021/06/24 10:55:58;;;;;;;;;;;;;;;;;;5116015;27;19919;-63
2021/06/24 10:58:26;;;;;;;;;;;;;;;;;;5113362;27;19911;-64
2021/06/24 11:00:52;;;;;;;;;;;;;;;;;;5113107;27;19912;-63
2021/06/24 11:03:18;;;;;;;;;;;;;;;;;;5120709;27;19920;-63
2021/06/24 11:05:44;;;;;;;;;;;;;;;;;;5112621;27;19927;-63
2021/06/24 11:08:10;;;;;;;;;;;;;;;;;;5116506;27;19908;-63
2021/06/24 11:10:36;;;;;;;;;;;;;;;;;;5111225;27;19927;-63
2021/06/24 11:13:02;;;;;;;;;;;;;;;;;;5108569;27;20358;-63
2021/06/24 11:15:28;;;;;;;;;;;;;;;;;;5125209;27;19958;-63
2021/06/24 11:17:54;;;;;;;;;;;;;;;;;;5110530;28;19924;-63
2021/06/24 11:20:20;;;;;;;;;;;;;;;;;;5116529;27;19908;-63
2021/06/24 11:22:46;;;;;;;;;;;;;;;;;;5113719;27;19934;-63
2021/06/24 11:25:12;;;;;;;;;;;;;;;;;;5113821;27;19918;-63
2021/06/24 11:27:38;;;;;;;;;;;;;;;;;;5114341;27;19911;-63
2021/06/24 11:30:03;;;;;;;;;;;;;;;;;;5110039;27;20435;-63
2021/06/24 11:32:31;;;;;;;;;;;;;;;;;;5123716;27;19930;-62
2021/06/24 11:34:59;;;;;;;;;;;;;;;;;;5114665;27;19908;-63
2021/06/24 11:37:25;;;;;;;;;;;;;;;;;;5113729;27;19927;-63
2021/06/24 11:39:51;;;;;;;;;;;;;;;;;;5113495;27;19912;-64
2021/06/24 11:42:18;;;;;;;;;;;;;;;;;;5100576;28;19918;-62
2021/06/24 11:44:47;;;;;;;;;;;;;;;;;;5127129;27;19911;-69
2021/06/24 11:47:13;;;;;;;;;;;;;;;;;;5116280;27;19964;-64
2021/06/24 12:00:27;;;;;;;;;;;;;;;;;;5113765;27;20337;-64
2021/06/24 12:03:24;;;;;;;;;;;;;;;;;;5119830;27;19952;-64
2021/06/24 12:05:50;;;;;;;;;;;;;;;;;;5110359;28;19923;-64
2021/06/24 12:08:16;;;;;;;;;;;;;;;;;;5115967;27;20007;-64
2021/06/24 12:10:42;;;;;;;;;;;;;;;;;;5108709;27;19959;-64
2021/06/24 12:13:07;;;;;;;;;;;;;;;;;;5094579;28;20374;-64
2021/06/24 12:15:34;;;;;;;;;;;;;;;;;;5123444;27;19996;-64
2021/06/24 12:18:00;;;;;;;;;;;;;;;;;;5108787;28;19966;-65
2021/06/24 12:20:27;;;;;;;;;;;;;;;;;;5114925;27;19992;-66
2021/06/24 12:22:58;;;;;;;;;;;;;;;;;;5113999;27;19912;-66
2021/06/24 12:25:24;;;;;;;;;;;;;;;;;;5112612;27;19919;-65
2021/06/24 12:27:50;;;;;;;;;;;;;;;;;;5112770;28;19920;-67
2021/06/24 12:30:16;;;;;;;;;;;;;;;;;;5111191;28;19916;-66
2021/06/24 12:32:42;;;;;;;;;;;;;;;;;;5120422;28;19915;-65
2021/06/24 12:35:08;;;;;;;;;;;;;;;;;;5124505;28;19918;-65
2021/06/24 12:37:34;;;;;;;;;;;;;;;;;;5115743;28;19920;-65
2021/06/24 12:39:59;;;;;;;;;;;;;;;;;;5108842;28;20414;-65
2021/06/24 12:42:25;;;;;;;;;;;;;;;;;;5099276;28;19915;-65
2021/06/24 12:44:51;;;;;;;;;;;;;;;;;;5126302;28;20377;-66
2021/06/24 12:47:17;;;;;;;;;;;;;;;;;;5115963;28;19965;-65
2021/06/24 12:49:43;;;;;;;;;;;;;;;;;;5112905;28;20326;-66
2021/06/24 12:52:09;;;;;;;;;;;;;;;;;;5111023;28;19912;-66
2021/06/24 12:54:35;;;;;;;;;;;;;;;;;;5112827;28;19912;-65
2021/06/24 12:57:01;;;;;;;;;;;;;;;;;;5108412;28;20006;-65
2021/06/24 12:59:27;;;;;;;;;;;;;;;;;;5115890;28;19957;-66
2021/06/24 13:01:53;;;;;;;;;;;;;;;;;;5121120;28;19916;-66
2021/06/24 13:04:19;;;;;;;;;;;;;;;;;;5112396;28;19912;-64
2021/06/24 13:06:45;;;;;;;;;;;;;;;;;;5112195;28;19970;-68
2021/06/24 13:09:14;;;;;;;;;;;;;;;;;;5107991;28;20598;-65
2021/06/24 13:11:40;;;;;;;;;;;;;;;;;;5113150;28;19914;-67
2021/06/24 13:14:06;;;;;;;;;;;;;;;;;;5124336;28;20002;-66
2021/06/24 13:16:32;;;;;;;;;;;;;;;;;;5118287;27;20287;-65
2021/06/24 13:18:58;;;;;;;;;;;;;;;;;;5116273;27;20012;-66
2021/06/24 13:21:24;;;;;;;;;;;;;;;;;;5116305;27;20429;-65
2021/06/24 13:23:50;;;;;;;;;;;;;;;;;;5114356;27;19920;-66
2021/06/24 13:26:16;;;;;;;;;;;;;;;;;;5119468;27;19915;-66
2021/06/24 13:28:42;;;;;;;;;;;;;;;;;;5117015;27;20282;-65
2021/06/24 13:31:08;;;;;;;;;;;;;;;;;;5116957;27;20447;-64
2021/06/24 13:33:34;;;;;;;;;;;;;;;;;;5116211;27;20022;-66
2021/06/24 13:36:00;;;;;;;;;;;;;;;;;;5112291;27;19973;-65
2021/06/24 13:38:25;;;;;;;;;;;;;;;;;;5119905;27;19986;-68
2021/06/24 13:40:52;;;;;;;;;;;;;;;;;;5116427;27;19982;-71
2021/06/24 13:43:18;;;;;;;;;;;;;;;;;;5119433;27;19912;-69
2021/06/24 13:45:46;;;;;;;;;;;;;;;;;;5125694;27;19967;-69
2021/06/24 13:48:13;;;;;;;;;;;;;;;;;;5113812;27;20010;-68
2021/06/24 13:50:39;;;;;;;;;;;;;;;;;;5116765;27;20371;-73
2021/06/24 13:53:05;;;;;;;;;;;;;;;;;;5117210;27;19959;-74
2021/06/24 13:55:38;;;;;;;;;;;;;;;;;;5115928;27;19907;-70
2021/06/24 13:58:04;;;;;;;;;;;;;;;;;;5116066;27;19962;-71
2021/06/24 14:00:31;;;;;;;;;;;;;;;;;;5115949;27;19947;-69
2021/06/24 14:02:57;;;;;;;;;;;;;;;;;;5100770;28;20252;-71
2021/06/24 14:05:23;;;;;;;;;;;;;;;;;;5126762;27;19914;-69
2021/06/24 14:07:49;;;;;;;;;;;;;;;;;;5116256;27;19908;-71
2021/06/24 14:10:15;;;;;;;;;;;;;;;;;;5110951;27;19964;-68
2021/06/24 14:12:41;;;;;;;;;;;;;;;;;;5099624;28;19916;-70
2021/06/24 14:15:07;;;;;;;;;;;;;;;;;;5111034;27;19935;-70
2021/06/24 14:17:33;;;;;;;;;;;;;;;;;;5114922;27;20034;-73
2021/06/24 14:19:59;;;;;;;;;;;;;;;;;;5099501;28;20370;-70
2021/06/24 14:22:25;;;;;;;;;;;;;;;;;;5113462;27;19993;-72
2021/06/24 14:24:51;;;;;;;;;;;;;;;;;;5113804;27;20370;-74
2021/06/24 14:27:16;;;;;;;;;;;;;;;;;;5094006;27;19920;-74
2021/06/24 14:29:42;;;;;;;;;;;;;;;;;;5112499;27;19908;-73
2021/06/24 14:32:08;;;;;;;;;;;;;;;;;;5115879;27;20271;-73
2021/06/24 14:34:34;;;;;;;;;;;;;;;;;;5115215;27;19995;-71
2021/06/24 14:37:00;;;;;;;;;;;;;;;;;;5115345;27;20370;-74
2021/06/24 14:39:26;;;;;;;;;;;;;;;;;;5114329;27;20426;-74
2021/06/24 14:41:52;;;;;;;;;;;;;;;;;;5112674;27;19972;-73
2021/06/24 14:44:18;;;;;;;;;;;;;;;;;;5128896;27;19907;-71
2021/06/24 14:46:44;;;;;;;;;;;;;;;;;;5116049;27;19912;-72
2021/06/24 14:49:09;;;;;;;;;;;;;;;;;;5115123;27;19916;-71
2021/06/24 14:51:40;;;;;;;;;;;;;;;;;;5115060;27;20027;-71
2021/06/24 14:54:09;;;;;;;;;;;;;;;;;;5110957;28;19962;-71
2021/06/24 14:56:35;;;;;;;;;;;;;;;;;;5115318;27;20003;-69
2021/06/24 14:59:01;;;;;;;;;;;;;;;;;;5116059;27;19908;-69
2021/06/24 15:01:27;;;;;;;;;;;;;;;;;;5114163;27;19916;-69
2021/06/24 15:03:53;;;;;;;;;;;;;;;;;;5114264;27;19911;-69
2021/06/24 15:06:19;;;;;;;;;;;;;;;;;;5113794;27;20289;-69
2021/06/24 15:08:44;;;;;;;;;;;;;;;;;;5112929;27;19908;-68
2021/06/24 15:11:11;;;;;;;;;;;;;;;;;;5116737;27;20444;-69
2021/06/24 15:13:36;;;;;;;;;;;;;;;;;;5120415;27;19916;-69
2021/06/24 15:16:02;;;;;;;;;;;;;;;;;;5121096;27;19926;-71
2021/06/24 15:18:28;;;;;;;;;;;;;;;;;;5095809;27;19919;-69
2021/06/24 15:20:54;;;;;;;;;;;;;;;;;;5111272;28;19988;-69
2021/06/24 15:23:20;;;;;;;;;;;;;;;;;;5117089;27;19999;-70
2021/06/24 15:25:46;;;;;;;;;;;;;;;;;;5113603;27;19916;-69
2021/06/24 15:28:12;;;;;;;;;;;;;;;;;;5114479;27;19912;-69
2021/06/24 15:30:38;;;;;;;;;;;;;;;;;;5114964;27;19912;-70
2021/06/24 15:33:04;;;;;;;;;;;;;;;;;;5110355;27;19919;-70
2021/06/24 15:35:29;;;;;;;;;;;;;;;;;;5116113;27;19907;-70
2021/06/24 15:37:55;;;;;;;;;;;;;;;;;;5114285;27;19919;-70
2021/06/24 15:40:21;;;;;;;;;;;;;;;;;;5113541;27;20278;-70
2021/06/24 15:42:47;;;;;;;;;;;;;;;;;;5113096;27;19919;-70
2021/06/24 15:45:13;;;;;;;;;;;;;;;;;;5125928;27;19996;-70
2021/06/24 15:47:39;;;;;;;;;;;;;;;;;;5113499;27;20395;-70
2021/06/24 15:50:05;;;;;;;;;;;;;;;;;;5115370;27;20416;-70
2021/06/24 15:52:31;;;;;;;;;;;;;;;;;;5113637;27;20346;-70
2021/06/24 15:54:57;;;;;;;;;;;;;;;;;;5114171;27;19922;-70
2021/06/24 15:57:23;;;;;;;;;;;;;;;;;;5112269;27;19919;-70
2021/06/24 15:59:48;;;;;;;;;;;;;;;;;;5111729;27;20010;-70
2021/06/24 16:02:14;;;;;;;;;;;;;;;;;;5116206;27;19999;-70
2021/06/24 16:04:40;;;;;;;;;;;;;;;;;;5114071;27;19964;-70
2021/06/24 16:07:06;;;;;;;;;;;;;;;;;;5112627;27;19920;-70
2021/06/24 16:09:32;;;;;;;;;;;;;;;;;;5095264;27;20279;-70
2021/06/24 16:12:00;;;;;;;;;;;;;;;;;;5110253;28;19954;-70
2021/06/24 16:14:27;;;;;;;;;;;;;;;;;;5124956;27;19927;-70
2021/06/24 16:16:53;;;;;;;;;;;;;;;;;;5113675;27;19920;-70
2021/06/24 16:19:19;;;;;;;;;;;;;;;;;;5113581;27;19972;-70
2021/06/24 16:21:45;;;;;;;;;;;;;;;;;;5113605;28;19911;-70
2021/06/24 16:24:16;;;;;;;;;;;;;;;;;;5092343;27;19962;-70
2021/06/24 16:26:42;;;;;;;;;;;;;;;;;;5113654;27;19951;-70
2021/06/24 16:29:08;;;;;;;;;;;;;;;;;;5115177;27;20282;-70
2021/06/24 16:31:34;;;;;;;;;;;;;;;;;;5095302;28;19918;-71
2021/06/24 16:34:00;;;;;;;;;;;;;;;;;;5113030;28;19919;-70
2021/06/24 16:36:26;;;;;;;;;;;;;;;;;;5112810;28;19930;-70
2021/06/24 16:38:52;;;;;;;;;;;;;;;;;;5110912;28;19965;-70
2021/06/24 16:41:18;;;;;;;;;;;;;;;;;;5116451;28;19908;-70
2021/06/24 16:43:44;;;;;;;;;;;;;;;;;;5119704;28;19911;-70
2021/06/24 16:46:10;;;;;;;;;;;;;;;;;;5119297;28;19918;-68
2021/06/24 16:48:36;;;;;;;;;;;;;;;;;;5113119;28;19915;-74